Time;durP1;ratioP1;P1;durP2;ratioP2;P2;SDS_P1;SDS_P2;PMS_P1;PMS_P2;Temp;Humidity;BMP_temperature;BMP_pressure;BME280_temperature;BME280_humidity;BME280_pressure;Samples;Min_cycle;Max_cycle;Signal;HPM_P1;HPM_P2
2023/08/09 00:01:29;;;;;;;10.00;9.00;;;;;;;;;;5074490;28;20378;-83
2023/08/09 00:03:55;;;;;;;13.85;9.43;;;;;;;;;;5074461;28;20048;-83
2023/08/09 00:06:21;;;;;;;12.15;9.75;;;;;;;;;;5074225;28;20516;-83
2023/08/09 00:08:47;;;;;;;13.55;10.20;;;;;;;;;;5073830;28;20151;-83
2023/08/09 00:11:13;;;;;;;11.68;10.45;;;;;;;;;;5057861;28;20106;-82
2023/08/09 00:13:39;;;;;;;12.43;10.80;;;;;;;;;;5073353;28;20136;-83
2023/08/09 00:16:06;;;;;;;13.07;11.00;;;;;;;;;;5074063;28;20048;-83
2023/08/09 00:18:32;;;;;;;12.35;11.18;;;;;;;;;;5074969;28;20044;-83
2023/08/09 00:20:58;;;;;;;14.80;11.65;;;;;;;;;;5075186;28;20515;-83
2023/08/09 00:23:24;;;;;;;10.52;9.50;;;;;;;;;;5074487;28;20131;-83
2023/08/09 00:25:50;;;;;;;13.30;10.43;;;;;;;;;;5074047;28;20543;-83
2023/08/09 00:28:16;;;;;;;15.55;11.15;;;;;;;;;;5074177;28;20093;-83
2023/08/09 00:30:43;;;;;;;11.60;10.40;;;;;;;;;;5074737;28;20052;-83
2023/08/09 00:33:09;;;;;;;11.45;10.38;;;;;;;;;;5057704;28;20063;-83
2023/08/09 00:35:35;;;;;;;12.45;11.18;;;;;;;;;;5056837;28;20056;-83
2023/08/09 00:38:02;;;;;;;19.95;13.82;;;;;;;;;;5074445;28;20047;-83
2023/08/09 00:40:28;;;;;;;12.40;11.13;;;;;;;;;;5075144;28;20079;-83
2023/08/09 00:42:54;;;;;;;15.27;11.68;;;;;;;;;;5073908;28;20131;-83
2023/08/09 00:45:20;;;;;;;20.58;13.10;;;;;;;;;;5073351;28;20046;-83
2023/08/09 00:47:46;;;;;;;19.23;13.80;;;;;;;;;;5074681;28;20045;-83
2023/08/09 00:50:12;;;;;;;13.80;12.15;;;;;;;;;;5057231;28;20158;-83
2023/08/09 00:52:39;;;;;;;12.25;11.05;;;;;;;;;;5074941;28;20492;-83
2023/08/09 00:55:05;;;;;;;14.43;12.32;;;;;;;;;;5073870;28;20041;-83
2023/08/09 00:57:32;;;;;;;15.07;13.35;;;;;;;;;;5074247;28;20084;-83
2023/08/09 00:59:58;;;;;;;13.68;12.15;;;;;;;;;;5057236;28;20048;-83
2023/08/09 01:02:24;;;;;;;16.85;13.13;;;;;;;;;;5073927;28;20040;-83
2023/08/09 01:04:51;;;;;;;14.05;12.60;;;;;;;;;;5074580;28;20048;-84
2023/08/09 01:07:39;;;;;;;16.77;13.73;;;;;;;;;;5056100;28;20095;-83
2023/08/09 01:10:15;;;;;;;16.40;13.93;;;;;;;;;;5073428;28;20040;-83
2023/08/09 01:12:42;;;;;;;17.13;13.80;;;;;;;;;;5073481;28;20052;-83
2023/08/09 01:15:09;;;;;;;22.75;16.05;;;;;;;;;;5073448;28;20057;-84
2023/08/09 01:17:35;;;;;;;17.02;14.77;;;;;;;;;;5056812;28;20362;-83
2023/08/09 01:20:02;;;;;;;16.13;14.38;;;;;;;;;;5074426;28;20523;-83
2023/08/09 01:22:30;;;;;;;16.35;14.68;;;;;;;;;;5040425;28;20531;-83
2023/08/09 01:25:00;;;;;;;16.40;13.30;;;;;;;;;;5073074;28;20549;-83
2023/08/09 01:27:26;;;;;;;17.33;15.40;;;;;;;;;;5074735;28;20058;-83
2023/08/09 01:29:53;;;;;;;16.17;14.57;;;;;;;;;;5056446;28;20040;-83
2023/08/09 01:32:19;;;;;;;16.77;14.88;;;;;;;;;;5056637;28;20461;-83
2023/08/09 01:34:45;;;;;;;18.75;16.15;;;;;;;;;;5074760;28;20045;-83
2023/08/09 01:37:29;;;;;;;21.63;16.13;;;;;;;;;;5057195;28;20049;-83
2023/08/09 01:39:57;;;;;;;17.73;15.88;;;;;;;;;;5073628;28;20048;-83
2023/08/09 01:42:23;;;;;;;17.42;14.90;;;;;;;;;;5073725;28;20102;-83
2023/08/09 01:44:50;;;;;;;20.17;16.42;;;;;;;;;;5073877;28;20055;-83
2023/08/09 01:47:17;;;;;;;20.65;15.90;;;;;;;;;;5077096;28;20477;-83
2023/08/09 01:49:51;;;;;;;17.33;15.55;;;;;;;;;;5078015;28;20076;-83
2023/08/09 01:52:17;;;;;;;20.23;16.30;;;;;;;;;;5077628;28;20508;-83
2023/08/09 01:54:43;;;;;;;18.90;16.90;;;;;;;;;;5077953;28;20087;-83
2023/08/09 01:57:11;;;;;;;18.58;16.63;;;;;;;;;;5059512;28;20037;-83
2023/08/09 01:59:38;;;;;;;21.08;17.35;;;;;;;;;;5076077;28;20055;-83
2023/08/09 02:02:04;;;;;;;19.13;16.20;;;;;;;;;;5075997;28;20113;-83
2023/08/09 02:04:30;;;;;;;18.98;16.55;;;;;;;;;;5077655;28;20083;-83
2023/08/09 02:06:56;;;;;;;19.15;17.23;;;;;;;;;;5059604;28;20055;-83
2023/08/09 02:09:23;;;;;;;18.23;15.65;;;;;;;;;;5059863;28;20405;-84
2023/08/09 02:11:49;;;;;;;25.23;19.15;;;;;;;;;;5076445;28;20480;-83
2023/08/09 02:14:15;;;;;;;24.08;18.35;;;;;;;;;;5059482;28;20041;-84
2023/08/09 02:16:41;;;;;;;18.48;15.93;;;;;;;;;;5077779;28;20048;-83
2023/08/09 02:19:09;;;;;;;19.67;16.50;;;;;;;;;;5076083;28;20056;-83
2023/08/09 02:21:38;;;;;;;18.40;16.38;;;;;;;;;;5076105;28;20044;-84
2023/08/09 02:24:05;;;;;;;25.27;19.27;;;;;;;;;;5075748;28;20489;-83
2023/08/09 02:26:32;;;;;;;21.65;17.02;;;;;;;;;;5076012;28;20048;-83
2023/08/09 02:28:58;;;;;;;20.50;17.83;;;;;;;;;;5076591;28;20131;-83
2023/08/09 02:31:25;;;;;;;20.63;17.90;;;;;;;;;;5077174;28;20048;-83
2023/08/09 02:33:51;;;;;;;20.13;18.02;;;;;;;;;;5043271;28;20388;-83
2023/08/09 02:36:17;;;;;;;19.10;17.02;;;;;;;;;;5077157;28;20048;-83
2023/08/09 02:38:43;;;;;;;17.65;15.80;;;;;;;;;;5075608;28;20064;-84
2023/08/09 02:41:09;;;;;;;18.17;16.30;;;;;;;;;;5076033;28;20076;-83
2023/08/09 02:43:36;;;;;;;25.33;19.88;;;;;;;;;;5058630;28;20044;-84
2023/08/09 02:46:04;;;;;;;18.00;16.20;;;;;;;;;;5075982;28;20052;-83
2023/08/09 02:48:30;;;;;;;23.38;18.45;;;;;;;;;;5076403;28;20044;-83
2023/08/09 02:50:56;;;;;;;22.73;17.05;;;;;;;;;;5059634;28;20052;-83
2023/08/09 02:53:26;;;;;;;19.02;17.13;;;;;;;;;;5059204;28;20052;-83
2023/08/09 02:55:52;;;;;;;31.23;20.60;;;;;;;;;;5077149;28;20040;-83
2023/08/09 02:58:18;;;;;;;19.45;17.35;;;;;;;;;;5076178;28;20041;-83
2023/08/09 03:00:44;;;;;;;18.55;16.38;;;;;;;;;;5076361;28;20045;-83
2023/08/09 03:03:10;;;;;;;24.98;17.58;;;;;;;;;;5076689;28;20385;-83
2023/08/09 03:05:37;;;;;;;17.33;15.63;;;;;;;;;;5075402;28;20102;-83
2023/08/09 03:08:03;;;;;;;16.15;14.68;;;;;;;;;;5076572;28;20056;-83
2023/08/09 03:10:29;;;;;;;17.75;15.45;;;;;;;;;;5076238;28;20492;-84
2023/08/09 03:12:55;;;;;;;17.73;15.13;;;;;;;;;;5075611;28;20067;-83
2023/08/09 03:15:22;;;;;;;23.45;15.30;;;;;;;;;;5074816;28;20120;-83
2023/08/09 03:17:49;;;;;;;20.08;14.43;;;;;;;;;;5075403;28;20533;-83
2023/08/09 03:20:15;;;;;;;25.75;17.60;;;;;;;;;;5075262;28;20056;-83
2023/08/09 03:22:45;;;;;;;22.20;15.27;;;;;;;;;;5075479;28;20056;-83
2023/08/09 03:25:12;;;;;;;18.17;14.43;;;;;;;;;;5058073;28;20044;-83
2023/08/09 03:27:38;;;;;;;21.15;15.00;;;;;;;;;;5075191;28;20041;-83
2023/08/09 03:30:06;;;;;;;21.00;14.85;;;;;;;;;;5058697;28;20044;-84
2023/08/09 03:32:32;;;;;;;14.60;13.25;;;;;;;;;;5042467;28;20048;-83
2023/08/09 03:34:58;;;;;;;22.40;13.70;;;;;;;;;;5058820;28;20101;-83
2023/08/09 03:37:24;;;;;;;27.48;15.00;;;;;;;;;;5075344;28;20447;-83
2023/08/09 03:39:50;;;;;;;17.52;13.85;;;;;;;;;;5075321;28;20045;-83
2023/08/09 03:42:16;;;;;;;20.95;14.00;;;;;;;;;;5058616;28;20037;-83
2023/08/09 03:44:43;;;;;;;40.78;15.15;;;;;;;;;;5075378;28;20508;-82
2023/08/09 03:47:09;;;;;;;14.07;12.90;;;;;;;;;;5074692;28;20090;-82
2023/08/09 03:49:35;;;;;;;21.73;14.00;;;;;;;;;;5074610;28;20135;-83
2023/08/09 03:52:01;;;;;;;17.00;14.02;;;;;;;;;;5074770;28;20075;-83
2023/08/09 03:54:28;;;;;;;23.48;14.35;;;;;;;;;;5075545;28;20566;-84
2023/08/09 03:56:54;;;;;;;20.38;14.77;;;;;;;;;;5057832;28;20052;-83
2023/08/09 03:59:20;;;;;;;62.05;21.92;;;;;;;;;;5058609;28;20055;-83
2023/08/09 04:01:46;;;;;;;25.63;16.92;;;;;;;;;;5074326;28;20044;-83
2023/08/09 04:04:13;;;;;;;24.98;15.10;;;;;;;;;;5075646;28;20053;-83
2023/08/09 04:06:39;;;;;;;53.67;21.02;;;;;;;;;;5074448;28;20052;-83
2023/08/09 04:09:07;;;;;;;17.95;15.70;;;;;;;;;;5074176;28;20049;-83
2023/08/09 04:11:33;;;;;;;25.70;15.27;;;;;;;;;;5075830;28;20538;-83
2023/08/09 04:13:59;;;;;;;15.85;14.23;;;;;;;;;;5073878;28;20045;-83
2023/08/09 04:16:25;;;;;;;66.65;20.25;;;;;;;;;;5074096;28;20125;-83
2023/08/09 04:18:52;;;;;;;20.92;12.77;;;;;;;;;;5075231;28;20047;-82
2023/08/09 04:21:18;;;;;;;20.30;13.57;;;;;;;;;;5074474;28;20044;-83
2023/08/09 04:23:44;;;;;;;45.65;13.70;;;;;;;;;;5074135;28;20045;-83
2023/08/09 04:26:10;;;;;;;26.60;13.73;;;;;;;;;;5057512;28;20048;-83
2023/08/09 04:28:36;;;;;;;51.92;15.05;;;;;;;;;;5074064;28;20500;-83
2023/08/09 04:31:05;;;;;;;121.53;20.88;;;;;;;;;;5057424;28;20045;-83
2023/08/09 04:33:31;;;;;;;22.77;13.80;;;;;;;;;;5073833;28;20045;-83
2023/08/09 04:35:58;;;;;;;15.57;13.40;;;;;;;;;;5075055;28;20093;-83
2023/08/09 04:38:24;;;;;;;17.33;13.95;;;;;;;;;;5074324;28;20110;-83
2023/08/09 04:40:50;;;;;;;24.58;13.25;;;;;;;;;;5057257;28;20531;-83
2023/08/09 04:43:17;;;;;;;15.85;14.50;;;;;;;;;;5057272;28;20040;-83
2023/08/09 04:45:43;;;;;;;14.93;13.63;;;;;;;;;;5056758;28;20131;-83
2023/08/09 04:48:15;;;;;;;32.00;13.77;;;;;;;;;;5073615;28;20127;-83
2023/08/09 04:50:41;;;;;;;49.38;13.82;;;;;;;;;;5057229;28;20397;-83
2023/08/09 04:53:07;;;;;;;21.95;13.75;;;;;;;;;;5074032;28;20059;-83
2023/08/09 04:55:33;;;;;;;81.68;15.38;;;;;;;;;;5073889;28;20177;-83
2023/08/09 04:57:59;;;;;;;103.85;18.65;;;;;;;;;;5074081;28;20372;-83
2023/08/09 05:00:26;;;;;;;68.55;15.25;;;;;;;;;;5074739;28;20052;-83
2023/08/09 05:02:52;;;;;;;31.45;13.07;;;;;;;;;;5073487;28;20127;-83
2023/08/09 05:05:18;;;;;;;61.20;16.55;;;;;;;;;;5057176;28;20058;-83
2023/08/09 05:07:44;;;;;;;18.83;14.32;;;;;;;;;;5074123;28;20044;-83
2023/08/09 05:10:11;;;;;;;25.08;14.40;;;;;;;;;;5073357;28;20044;-83
2023/08/09 05:12:37;;;;;;;39.15;12.82;;;;;;;;;;5074170;28;20105;-83
2023/08/09 05:15:03;;;;;;;15.23;12.15;;;;;;;;;;5056519;28;20465;-83
2023/08/09 05:17:29;;;;;;;24.98;13.40;;;;;;;;;;5073551;28;20040;-83
2023/08/09 05:19:55;;;;;;;43.03;13.65;;;;;;;;;;5074980;28;20048;-83
2023/08/09 05:22:22;;;;;;;49.15;15.25;;;;;;;;;;5077815;28;20476;-83
2023/08/09 05:24:48;;;;;;;13.63;11.93;;;;;;;;;;5077747;28;20055;-84
2023/08/09 05:27:14;;;;;;;23.83;13.80;;;;;;;;;;5077751;28;20041;-83
2023/08/09 05:29:40;;;;;;;18.55;13.50;;;;;;;;;;5060766;28;20127;-83
2023/08/09 05:32:07;;;;;;;14.15;13.07;;;;;;;;;;5077510;28;20048;-83
2023/08/09 05:34:33;;;;;;;14.00;12.90;;;;;;;;;;5077598;28;20190;-83
2023/08/09 05:36:59;;;;;;;15.27;13.20;;;;;;;;;;5077394;28;20048;-83
2023/08/09 05:39:25;;;;;;;13.70;12.57;;;;;;;;;;5060683;28;20049;-83
2023/08/09 05:41:51;;;;;;;13.40;11.95;;;;;;;;;;5077360;28;20044;-83
2023/08/09 05:44:17;;;;;;;13.55;12.43;;;;;;;;;;5077446;28;20145;-84
2023/08/09 05:46:43;;;;;;;13.02;11.80;;;;;;;;;;5077360;28;20400;-83
2023/08/09 05:49:09;;;;;;;13.90;12.60;;;;;;;;;;5076945;28;20055;-83
2023/08/09 05:51:36;;;;;;;14.40;12.95;;;;;;;;;;5076695;28;20373;-83
2023/08/09 05:54:02;;;;;;;13.23;12.30;;;;;;;;;;5077493;28;20045;-83
2023/08/09 05:56:28;;;;;;;11.63;10.80;;;;;;;;;;5060117;28;20489;-84
2023/08/09 05:58:54;;;;;;;12.18;11.38;;;;;;;;;;5078406;28;20040;-83
2023/08/09 06:01:21;;;;;;;11.82;10.90;;;;;;;;;;5060451;28;20045;-83
2023/08/09 06:03:47;;;;;;;12.50;11.40;;;;;;;;;;5060444;28;20071;-83
2023/08/09 06:06:13;;;;;;;11.38;10.68;;;;;;;;;;5058156;28;20059;-83
2023/08/09 06:08:40;;;;;;;12.30;11.23;;;;;;;;;;5076417;28;20056;-83
2023/08/09 06:11:06;;;;;;;11.77;10.98;;;;;;;;;;5077136;28;20477;-83
2023/08/09 06:13:32;;;;;;;11.00;10.20;;;;;;;;;;5077418;28;20388;-84
2023/08/09 06:15:58;;;;;;;13.77;12.75;;;;;;;;;;5077203;28;20052;-83
2023/08/09 06:18:25;;;;;;;12.07;11.18;;;;;;;;;;5076293;28;20131;-83
2023/08/09 06:20:54;;;;;;;11.55;10.57;;;;;;;;;;5077021;28;20388;-84
2023/08/09 06:23:20;;;;;;;9.80;8.90;;;;;;;;;;5059911;28;20047;-84
2023/08/09 06:25:48;;;;;;;11.27;9.95;;;;;;;;;;5060362;28;20052;-84
2023/08/09 06:28:15;;;;;;;10.45;9.60;;;;;;;;;;5077481;28;20445;-84
2023/08/09 06:30:41;;;;;;;9.02;8.43;;;;;;;;;;5076799;28;20048;-84
2023/08/09 06:33:07;;;;;;;9.80;9.15;;;;;;;;;;5076474;28;20044;-83
2023/08/09 06:35:33;;;;;;;9.85;9.25;;;;;;;;;;5076245;28;20519;-84
2023/08/09 06:37:59;;;;;;;9.32;8.68;;;;;;;;;;5076201;28;20127;-83
2023/08/09 06:40:25;;;;;;;8.63;8.13;;;;;;;;;;5060054;28;20041;-84
2023/08/09 06:42:52;;;;;;;8.98;8.38;;;;;;;;;;5075927;28;20515;-84
2023/08/09 06:45:18;;;;;;;8.88;8.15;;;;;;;;;;5075888;28;20045;-83
2023/08/09 06:47:44;;;;;;;8.77;8.07;;;;;;;;;;5077265;28;20044;-83
2023/08/09 06:50:10;;;;;;;9.35;8.57;;;;;;;;;;5076313;28;20045;-83
2023/08/09 06:52:36;;;;;;;9.40;8.60;;;;;;;;;;5076412;28;20428;-83
2023/08/09 06:55:03;;;;;;;8.32;7.63;;;;;;;;;;5076526;28;20127;-84
2023/08/09 06:57:29;;;;;;;7.25;6.78;;;;;;;;;;5059490;28;20048;-84
2023/08/09 06:59:55;;;;;;;7.40;7.00;;;;;;;;;;5076888;28;20489;-84
2023/08/09 07:02:21;;;;;;;7.55;7.05;;;;;;;;;;5075565;28;20051;-84
2023/08/09 07:04:50;;;;;;;6.82;6.43;;;;;;;;;;5076115;28;20052;-84
2023/08/09 07:07:19;;;;;;;6.38;5.70;;;;;;;;;;5075528;28;20574;-84
2023/08/09 07:09:46;;;;;;;6.90;6.55;;;;;;;;;;5075733;28;20061;-84
2023/08/09 07:12:12;;;;;;;7.68;7.22;;;;;;;;;;5059294;28;20044;-84
2023/08/09 07:14:38;;;;;;;7.35;6.88;;;;;;;;;;5076283;28;20053;-84
2023/08/09 07:17:04;;;;;;;7.30;6.70;;;;;;;;;;5076376;28;20068;-84
2023/08/09 07:19:30;;;;;;;6.68;6.18;;;;;;;;;;5058771;28;20132;-85
2023/08/09 07:21:56;;;;;;;6.88;6.47;;;;;;;;;;5059221;28;20127;-84
2023/08/09 07:24:22;;;;;;;6.35;6.00;;;;;;;;;;5059155;28;20055;-84
2023/08/09 07:26:48;;;;;;;5.95;5.60;;;;;;;;;;5076430;28;20044;-84
2023/08/09 07:29:14;;;;;;;5.32;5.13;;;;;;;;;;5059140;28;20045;-84
2023/08/09 07:31:41;;;;;;;5.82;5.47;;;;;;;;;;5075788;28;20044;-84
2023/08/09 07:34:07;;;;;;;5.65;5.35;;;;;;;;;;5076196;28;20493;-84
2023/08/09 07:36:33;;;;;;;5.32;5.03;;;;;;;;;;5076925;28;20048;-84
2023/08/09 07:38:59;;;;;;;5.80;5.30;;;;;;;;;;5058703;28;20047;-84
2023/08/09 07:41:25;;;;;;;5.20;4.80;;;;;;;;;;5075823;28;20087;-83
2023/08/09 07:43:51;;;;;;;4.75;4.43;;;;;;;;;;5075040;28;20048;-82
2023/08/09 07:46:17;;;;;;;4.30;4.00;;;;;;;;;;5074581;28;20113;-82
2023/08/09 07:48:44;;;;;;;4.25;4.05;;;;;;;;;;5074959;28;20087;-83
2023/08/09 07:51:11;;;;;;;4.30;3.85;;;;;;;;;;5075153;28;20094;-84
2023/08/09 07:53:41;;;;;;;5.03;4.63;;;;;;;;;;5074426;28;20044;-84
2023/08/09 07:56:07;;;;;;;4.03;3.83;;;;;;;;;;5074758;28;20041;-83
2023/08/09 07:58:33;;;;;;;4.45;4.10;;;;;;;;;;5074693;28;20441;-84
2023/08/09 08:01:01;;;;;;;4.10;3.80;;;;;;;;;;5057844;28;20052;-84
2023/08/09 08:03:29;;;;;;;4.55;4.15;;;;;;;;;;5074230;28;20127;-84
2023/08/09 08:05:55;;;;;;;3.92;3.75;;;;;;;;;;5058647;28;20128;-83
2023/08/09 08:08:21;;;;;;;4.65;3.63;;;;;;;;;;5073569;28;20055;-84
2023/08/09 08:10:47;;;;;;;4.45;4.05;;;;;;;;;;5073780;28;20082;-83
2023/08/09 08:13:14;;;;;;;3.75;3.45;;;;;;;;;;5074073;28;20052;-83
2023/08/09 08:15:40;;;;;;;3.83;3.63;;;;;;;;;;5057394;28;20142;-83
2023/08/09 08:18:07;;;;;;;3.55;3.35;;;;;;;;;;5074818;28;20052;-83
2023/08/09 08:20:33;;;;;;;3.88;3.58;;;;;;;;;;5074035;28;20036;-84
2023/08/09 08:22:59;;;;;;;3.00;2.83;;;;;;;;;;5075169;28;20040;-83
2023/08/09 08:25:26;;;;;;;3.97;2.40;;;;;;;;;;5075237;28;20119;-83
2023/08/09 08:27:52;;;;;;;4.22;3.30;;;;;;;;;;5057538;28;20052;-83
2023/08/09 08:30:20;;;;;;;3.25;3.05;;;;;;;;;;5075243;28;20056;-83
2023/08/09 08:32:47;;;;;;;2.05;1.95;;;;;;;;;;5057692;28;20048;-83
2023/08/09 08:35:14;;;;;;;2.15;2.03;;;;;;;;;;5074287;28;20059;-83
2023/08/09 08:37:41;;;;;;;2.10;1.90;;;;;;;;;;5057393;28;20139;-83
2023/08/09 08:40:08;;;;;;;3.15;2.85;;;;;;;;;;5074071;28;20044;-83
2023/08/09 08:42:36;;;;;;;2.88;2.42;;;;;;;;;;5074361;28;20044;-83
2023/08/09 08:45:09;;;;;;;2.90;2.55;;;;;;;;;;5073555;28;20095;-83
2023/08/09 08:47:37;;;;;;;2.53;2.33;;;;;;;;;;5074839;28;20484;-83
2023/08/09 08:50:03;;;;;;;2.55;2.22;;;;;;;;;;5056953;28;20163;-83
2023/08/09 08:52:30;;;;;;;4.22;2.13;;;;;;;;;;5057602;28;20040;-84
2023/08/09 08:54:56;;;;;;;2.30;2.03;;;;;;;;;;5073360;28;20055;-83
2023/08/09 08:57:22;;;;;;;1.95;1.50;;;;;;;;;;5074258;28;20110;-84
2023/08/09 08:59:48;;;;;;;1.63;1.52;;;;;;;;;;5074208;28;20484;-83
2023/08/09 09:02:15;;;;;;;3.00;2.80;;;;;;;;;;5074195;28;20072;-84
2023/08/09 09:04:41;;;;;;;3.78;2.10;;;;;;;;;;5074583;28;20048;-83
2023/08/09 09:07:10;;;;;;;2.53;1.70;;;;;;;;;;5074701;28;20075;-88
2023/08/09 09:09:44;;;;;;;3.15;1.75;;;;;;;;;;5040937;28;20102;-84
2023/08/09 09:12:10;;;;;;;1.55;1.42;;;;;;;;;;5074082;28;20049;-83
2023/08/09 09:14:36;;;;;;;2.10;1.08;;;;;;;;;;5073247;28;20397;-83
2023/08/09 09:17:02;;;;;;;1.08;0.45;;;;;;;;;;5073999;28;20048;-83
2023/08/09 09:19:33;;;;;;;1.42;0.50;;;;;;;;;;5057262;28;20132;-83
2023/08/09 09:21:59;;;;;;;1.65;0.60;;;;;;;;;;5073715;28;20098;-83
2023/08/09 09:24:25;;;;;;;2.25;0.60;;;;;;;;;;5073836;28;20052;-83
2023/08/09 09:26:53;;;;;;;0.90;0.60;;;;;;;;;;5074800;28;20489;-83
2023/08/09 09:29:20;;;;;;;1.17;0.30;;;;;;;;;;5057007;28;20056;-84
2023/08/09 09:31:46;;;;;;;1.65;0.30;;;;;;;;;;5057149;28;20041;-83
2023/08/09 09:34:14;;;;;;;1.33;0.30;;;;;;;;;;5073739;28;20127;-84
2023/08/09 09:36:42;;;;;;;1.30;0.30;;;;;;;;;;5074193;28;20489;-83
2023/08/09 09:39:09;;;;;;;0.40;0.30;;;;;;;;;;5072607;28;20518;-84
2023/08/09 09:41:36;;;;;;;1.85;0.40;;;;;;;;;;5073678;28;20084;-83
2023/08/09 09:44:03;;;;;;;0.80;0.30;;;;;;;;;;5073679;28;20098;-83
2023/08/09 09:46:31;;;;;;;1.67;0.28;;;;;;;;;;5073178;28;20497;-83
2023/08/09 09:49:03;;;;;;;1.58;0.20;;;;;;;;;;5073869;28;20131;-83
2023/08/09 09:51:30;;;;;;;0.45;0.10;;;;;;;;;;5073890;28;20040;-83
2023/08/09 09:53:56;;;;;;;2.55;0.20;;;;;;;;;;5074342;28;20489;-83
2023/08/09 09:56:22;;;;;;;1.65;0.20;;;;;;;;;;5074410;28;20051;-83
2023/08/09 09:58:48;;;;;;;0.50;0.10;;;;;;;;;;5074374;28;20049;-83
2023/08/09 10:01:18;;;;;;;1.58;0.10;;;;;;;;;;5074695;28;20048;-83
2023/08/09 10:03:44;;;;;;;0.80;0.17;;;;;;;;;;5072935;28;20048;-83
2023/08/09 10:06:17;;;;;;;2.67;0.40;;;;;;;;;;5073245;28;20139;-83
2023/08/09 10:08:43;;;;;;;1.08;0.17;;;;;;;;;;5076868;28;20098;-83
2023/08/09 10:11:09;;;;;;;0.93;0.20;;;;;;;;;;5043645;28;20048;-84
2023/08/09 10:13:39;;;;;;;1.38;0.20;;;;;;;;;;5060699;28;20044;-83
2023/08/09 10:16:07;;;;;;;1.80;0.40;;;;;;;;;;5078013;28;20048;-84
2023/08/09 10:18:39;;;;;;;0.65;0.20;;;;;;;;;;5078125;28;20135;-84
2023/08/09 10:21:06;;;;;;;0.93;0.13;;;;;;;;;;5077956;28;20049;-84
2023/08/09 10:23:32;;;;;;;1.70;0.30;;;;;;;;;;5077367;28;20052;-84
2023/08/09 10:25:58;;;;;;;1.55;0.30;;;;;;;;;;5077075;28;20056;-84
2023/08/09 10:28:47;;;;;;;1.50;0.20;;;;;;;;;;5076576;28;20055;-84
2023/08/09 10:31:13;;;;;;;1.30;0.30;;;;;;;;;;5076926;28;20049;-84
2023/08/09 10:34:02;;;;;;;0.40;0.10;;;;;;;;;;5059540;28;20480;-84
2023/08/09 10:36:32;;;;;;;3.42;0.30;;;;;;;;;;5076038;28;20044;-84
2023/08/09 10:38:58;;;;;;;0.85;0.20;;;;;;;;;;5075956;28;20123;-83
2023/08/09 10:41:28;;;;;;;1.80;0.20;;;;;;;;;;5075713;28;20128;-84
2023/08/09 10:44:01;;;;;;;0.65;0.20;;;;;;;;;;5076775;28;20135;-83
2023/08/09 10:46:27;;;;;;;0.60;0.20;;;;;;;;;;5077537;28;20492;-84
2023/08/09 10:48:54;;;;;;;0.70;0.20;;;;;;;;;;5077098;28;20049;-84
2023/08/09 10:51:21;;;;;;;1.95;0.20;;;;;;;;;;5076454;28;20041;-85
2023/08/09 10:53:51;;;;;;;0.82;0.20;;;;;;;;;;5058750;28;20547;-85
2023/08/09 10:56:29;;;;;;;1.85;0.15;;;;;;;;;;5076007;28;20179;-85
2023/08/09 10:58:55;;;;;;;1.10;0.10;;;;;;;;;;5075490;28;20047;-84
2023/08/09 11:01:27;;;;;;;1.30;0.20;;;;;;;;;;5075939;28;20178;-84
2023/08/09 11:03:54;;;;;;;0.80;0.20;;;;;;;;;;5075628;28;20048;-84
2023/08/09 11:06:37;;;;;;;1.35;0.20;;;;;;;;;;5075582;28;20055;-84
2023/08/09 11:09:22;;;;;;;0.28;0.10;;;;;;;;;;5075993;28;20396;-84
2023/08/09 11:11:49;;;;;;;1.85;0.10;;;;;;;;;;5075568;28;20519;-84
2023/08/09 11:14:16;;;;;;;1.15;0.10;;;;;;;;;;5075977;28;20067;-85
2023/08/09 11:16:43;;;;;;;1.20;0.50;;;;;;;;;;5077059;28;20416;-84
2023/08/09 11:19:16;;;;;;;0.40;0.10;;;;;;;;;;5075052;28;20149;-84
2023/08/09 11:21:43;;;;;;;0.65;0.10;;;;;;;;;;5076688;28;20049;-83
2023/08/09 11:24:13;;;;;;;1.35;0.10;;;;;;;;;;5076266;28;20099;-83
2023/08/09 11:26:44;;;;;;;3.15;0.17;;;;;;;;;;5075410;28;20044;-83
2023/08/09 11:29:10;;;;;;;0.50;0.20;;;;;;;;;;5076158;28;20041;-84
2023/08/09 11:31:41;;;;;;;1.23;0.10;;;;;;;;;;5074982;28;20080;-84
2023/08/09 11:34:07;;;;;;;1.08;0.20;;;;;;;;;;5075111;28;20044;-84
2023/08/09 11:36:33;;;;;;;1.50;0.20;;;;;;;;;;5075413;28;20043;-84
2023/08/09 11:39:00;;;;;;;0.40;0.20;;;;;;;;;;5076353;28;20113;-84
2023/08/09 11:41:27;;;;;;;1.77;0.10;;;;;;;;;;5076407;28;20052;-84
2023/08/09 11:43:53;;;;;;;1.60;0.20;;;;;;;;;;5075057;28;20051;-83
2023/08/09 11:46:21;;;;;;;1.65;0.20;;;;;;;;;;5075569;28;20049;-84
2023/08/09 11:48:48;;;;;;;0.68;0.20;;;;;;;;;;5074699;28;20099;-83
2023/08/09 11:51:16;;;;;;;2.30;0.17;;;;;;;;;;5075066;28;20059;-84
2023/08/09 11:53:43;;;;;;;1.25;0.20;;;;;;;;;;5075999;28;20051;-84
2023/08/09 11:56:18;;;;;;;1.10;0.20;;;;;;;;;;5075138;28;20105;-84
2023/08/09 11:58:45;;;;;;;2.75;0.20;;;;;;;;;;5075184;28;20494;-83
2023/08/09 12:01:21;;;;;;;1.02;0.20;;;;;;;;;;5074303;28;20047;-83
2023/08/09 12:03:49;;;;;;;0.93;0.20;;;;;;;;;;5074112;28;20513;-84
2023/08/09 12:06:15;;;;;;;0.50;0.17;;;;;;;;;;5074189;28;20052;-83
2023/08/09 12:08:41;;;;;;;0.35;0.20;;;;;;;;;;5074679;28;20487;-83
2023/08/09 12:11:07;;;;;;;1.70;0.20;;;;;;;;;;5074367;28;20484;-83
2023/08/09 12:13:33;;;;;;;1.35;0.22;;;;;;;;;;5074525;28;20049;-84
2023/08/09 12:16:06;;;;;;;0.57;0.17;;;;;;;;;;5075151;28;20050;-83
2023/08/09 12:18:33;;;;;;;0.85;0.20;;;;;;;;;;5058620;28;20105;-84
2023/08/09 12:20:59;;;;;;;1.42;0.20;;;;;;;;;;5075470;28;20045;-84
2023/08/09 12:23:26;;;;;;;2.65;0.25;;;;;;;;;;5074144;28;20040;-84
2023/08/09 12:25:52;;;;;;;0.85;0.20;;;;;;;;;;5074461;28;20097;-84
2023/08/09 12:28:18;;;;;;;1.27;0.30;;;;;;;;;;5074710;28;20052;-84
2023/08/09 12:30:44;;;;;;;1.20;0.25;;;;;;;;;;5073252;28;20499;-84
2023/08/09 12:33:11;;;;;;;1.60;0.50;;;;;;;;;;5075984;28;20101;-84
2023/08/09 12:35:37;;;;;;;0.75;0.20;;;;;;;;;;5074817;28;20090;-85
2023/08/09 12:38:03;;;;;;;1.15;0.20;;;;;;;;;;5075831;28;20451;-84
2023/08/09 12:40:29;;;;;;;1.25;0.20;;;;;;;;;;5074352;28;20048;-84
2023/08/09 12:42:56;;;;;;;0.55;0.20;;;;;;;;;;5068119;28;20045;-85
2023/08/09 12:45:22;;;;;;;1.60;0.20;;;;;;;;;;5071838;28;20053;-85
2023/08/09 12:47:48;;;;;;;0.70;0.10;;;;;;;;;;5073264;28;20153;-84
2023/08/09 12:50:15;;;;;;;1.75;0.30;;;;;;;;;;5073433;28;20098;-85
2023/08/09 12:52:41;;;;;;;0.98;0.20;;;;;;;;;;5074570;28;20040;-83
2023/08/09 12:55:07;;;;;;;0.60;0.20;;;;;;;;;;5057107;28;20045;-83
2023/08/09 12:57:33;;;;;;;0.95;0.20;;;;;;;;;;5073673;28;20109;-85
2023/08/09 12:59:59;;;;;;;0.77;0.20;;;;;;;;;;5057385;28;20055;-83
2023/08/09 13:02:25;;;;;;;0.65;0.20;;;;;;;;;;5074904;28;20545;-84
2023/08/09 13:04:52;;;;;;;0.88;0.20;;;;;;;;;;5074203;28;20044;-84
2023/08/09 13:07:18;;;;;;;0.45;0.20;;;;;;;;;;5073713;28;20063;-84
2023/08/09 13:09:44;;;;;;;0.65;0.25;;;;;;;;;;5074584;28;20049;-83
2023/08/09 13:12:10;;;;;;;0.60;0.20;;;;;;;;;;5074936;28;20131;-84
2023/08/09 13:14:37;;;;;;;1.20;0.20;;;;;;;;;;5073412;28;20040;-83
2023/08/09 13:17:04;;;;;;;0.60;0.20;;;;;;;;;;5073901;28;20446;-84
2023/08/09 13:19:34;;;;;;;0.80;0.28;;;;;;;;;;5074759;28;20083;-83
2023/08/09 13:22:00;;;;;;;0.43;0.40;;;;;;;;;;5075388;28;20048;-84
2023/08/09 13:24:26;;;;;;;1.75;0.20;;;;;;;;;;5074861;28;20067;-84
2023/08/09 13:26:53;;;;;;;1.45;0.20;;;;;;;;;;5074935;28;20135;-83
2023/08/09 13:29:19;;;;;;;2.00;0.57;;;;;;;;;;5074466;28;20044;-84
2023/08/09 13:31:45;;;;;;;1.50;0.25;;;;;;;;;;5073212;28;20476;-83
2023/08/09 13:34:11;;;;;;;0.65;0.20;;;;;;;;;;5073197;28;20049;-83
2023/08/09 13:36:37;;;;;;;0.70;0.20;;;;;;;;;;5072632;28;20500;-84
2023/08/09 13:39:03;;;;;;;0.88;0.20;;;;;;;;;;5073010;28;20060;-83
2023/08/09 13:41:30;;;;;;;1.83;0.17;;;;;;;;;;5075925;28;20101;-82
2023/08/09 13:43:56;;;;;;;0.65;0.20;;;;;;;;;;5077391;28;20055;-84
2023/08/09 13:46:22;;;;;;;1.15;0.22;;;;;;;;;;5077993;28;20132;-84
2023/08/09 13:48:48;;;;;;;0.55;0.15;;;;;;;;;;5078536;28;20044;-84
2023/08/09 13:51:14;;;;;;;0.95;0.20;;;;;;;;;;5077847;28;20040;-83
2023/08/09 13:53:40;;;;;;;1.25;0.30;;;;;;;;;;5060828;28;20047;-83
2023/08/09 13:56:06;;;;;;;1.27;0.28;;;;;;;;;;5077346;28;20496;-83
2023/08/09 13:58:33;;;;;;;0.80;0.20;;;;;;;;;;5076537;28;20076;-84
2023/08/09 14:00:59;;;;;;;0.82;0.40;;;;;;;;;;5060230;28;20079;-84
2023/08/09 14:03:25;;;;;;;1.08;0.20;;;;;;;;;;5060200;28;20075;-83
2023/08/09 14:05:52;;;;;;;1.85;0.20;;;;;;;;;;5078107;28;20044;-83
2023/08/09 14:08:18;;;;;;;1.98;0.20;;;;;;;;;;5078071;28;20092;-84
2023/08/09 14:10:44;;;;;;;1.85;0.20;;;;;;;;;;5076981;28;20037;-84
2023/08/09 14:13:10;;;;;;;2.30;0.20;;;;;;;;;;5077250;28;20496;-84
2023/08/09 14:15:36;;;;;;;0.80;0.20;;;;;;;;;;5076098;28;20420;-83
2023/08/09 14:18:03;;;;;;;1.67;0.20;;;;;;;;;;5076980;28;20063;-83
2023/08/09 14:20:29;;;;;;;1.38;0.20;;;;;;;;;;5075970;28;20049;-84
2023/08/09 14:22:55;;;;;;;1.75;0.20;;;;;;;;;;5059506;28;20083;-84
2023/08/09 14:25:25;;;;;;;2.63;0.20;;;;;;;;;;5078281;28;20388;-83
2023/08/09 14:27:52;;;;;;;2.05;0.30;;;;;;;;;;5076773;28;20049;-83
2023/08/09 14:30:18;;;;;;;0.68;0.20;;;;;;;;;;5076517;28;20051;-83